createdAt,value
2023-05-24T00:02:07.805Z,3.45
2023-05-24T00:09:09.432Z,3.13
2023-05-24T00:16:11.067Z,2.78
2023-05-24T00:23:12.688Z,2.53
2023-05-24T00:30:14.327Z,3.15
2023-05-24T00:37:15.922Z,3.03
2023-05-24T00:44:17.499Z,3.80
2023-05-24T00:51:19.208Z,3.72
2023-05-24T00:58:21.255Z,4.75
2023-05-24T01:05:23.548Z,6.63
2023-05-24T01:12:28.131Z,8.35
2023-05-24T01:19:51.480Z,42.60
2023-05-24T01:27:07.304Z,63.88
2023-05-24T01:34:09.850Z,48.10
2023-05-24T01:41:14.097Z,52.38
2023-05-24T01:48:30.766Z,53.10
2023-05-24T01:55:32.942Z,32.60
2023-05-24T02:02:34.645Z,36.38
2023-05-24T02:09:36.443Z,48.90
2023-05-24T02:16:42.629Z,59.38
2023-05-24T02:23:44.446Z,40.05
2023-05-24T02:30:46.994Z,30.38
2023-05-24T02:37:48.569Z,23.67
2023-05-24T02:44:52.487Z,36.97
2023-05-24T02:51:54.146Z,51.60
2023-05-24T02:58:56.376Z,50.47
2023-05-24T03:05:58.080Z,34.88
2023-05-24T03:12:59.724Z,65.15
2023-05-24T03:20:01.923Z,84.53
2023-05-24T03:27:06.583Z,103.47
2023-05-24T03:34:08.303Z,95.75
2023-05-24T03:41:11.347Z,31.45
2023-05-24T03:48:13.768Z,30.00
2023-05-24T03:55:15.747Z,37.70
2023-05-24T04:02:17.448Z,6.60
2023-05-24T04:09:19.215Z,7.20
2023-05-24T04:16:21.084Z,5.57
2023-05-24T04:23:22.682Z,27.05
2023-05-24T04:30:24.374Z,6.13
2023-05-24T04:37:26.036Z,6.50
2023-05-24T04:44:28.195Z,6.65
2023-05-24T04:51:29.771Z,12.65
2023-05-24T04:58:31.350Z,11.68
2023-05-24T05:05:33.120Z,10.07
2023-05-24T05:12:34.748Z,3.42
2023-05-24T05:19:36.386Z,2.70
2023-05-24T05:26:38.014Z,3.47
2023-05-24T05:33:39.677Z,3.85
2023-05-24T05:40:41.462Z,3.65
2023-05-24T05:47:43.338Z,4.90
2023-05-24T05:54:45.034Z,4.47
2023-05-24T06:01:48.857Z,3.88
2023-05-24T06:08:50.517Z,3.58
2023-05-24T06:15:52.791Z,3.80
2023-05-24T06:22:55.358Z,4.43
2023-05-24T06:29:56.942Z,4.25
2023-05-24T06:36:58.675Z,4.75
2023-05-24T06:44:00.265Z,4.85
2023-05-24T06:51:02.034Z,3.92
2023-05-24T06:58:03.939Z,4.63
2023-05-24T07:05:06.408Z,5.60
2023-05-24T07:12:09.293Z,5.10
2023-05-24T07:19:11.112Z,3.92
2023-05-24T07:26:12.816Z,4.40
2023-05-24T07:33:14.449Z,4.25
2023-05-24T07:40:16.240Z,3.55
2023-05-24T07:47:17.880Z,2.60
2023-05-24T07:54:19.507Z,4.78
2023-05-24T08:01:21.139Z,3.63
2023-05-24T08:08:23.168Z,4.40
2023-05-24T08:15:24.901Z,4.18
2023-05-24T08:22:26.503Z,4.50
2023-05-24T08:29:28.469Z,3.78
2023-05-24T08:36:30.241Z,3.75
2023-05-24T08:43:32.929Z,4.72
2023-05-24T08:50:34.761Z,4.30
2023-05-24T08:57:39.519Z,5.05
2023-05-24T09:04:41.637Z,4.53
2023-05-24T09:11:43.679Z,3.90
2023-05-24T09:18:45.311Z,4.25
2023-05-24T09:25:47.681Z,4.15
2023-05-24T09:32:57.175Z,3.88
2023-05-24T09:39:58.887Z,3.42
2023-05-24T09:47:06.752Z,3.50
2023-05-24T09:54:08.364Z,3.95
2023-05-24T10:01:18.645Z,3.58
2023-05-24T10:08:21.480Z,3.55
2023-05-24T10:15:23.581Z,3.55
2023-05-24T10:22:26.050Z,3.35
2023-05-24T10:29:41.962Z,2.92
2023-05-24T10:36:44.055Z,3.13
2023-05-24T10:44:00.660Z,3.30
2023-05-24T10:51:32.878Z,3.30
2023-05-24T10:58:35.384Z,3.95
2023-05-24T11:05:52.734Z,3.00
2023-05-24T11:13:00.016Z,3.53
2023-05-24T11:20:01.716Z,3.53
2023-05-24T11:27:03.759Z,3.08
2023-05-24T11:34:06.830Z,3.65
2023-05-24T11:41:08.411Z,3.63
2023-05-24T11:48:10.631Z,3.38
2023-05-24T11:55:16.481Z,2.75
2023-05-24T12:02:19.514Z,2.88
2023-05-24T12:09:21.183Z,3.60
2023-05-24T12:16:23.362Z,3.20
2023-05-24T12:23:29.591Z,2.75
2023-05-24T12:30:31.466Z,3.00
2023-05-24T12:37:33.533Z,2.97
2023-05-24T12:44:35.824Z,2.80
2023-05-24T12:51:37.468Z,3.20
2023-05-24T12:58:39.134Z,3.42
2023-05-24T13:05:41.137Z,3.28
2023-05-24T13:12:43.630Z,2.83
2023-05-24T13:19:45.247Z,2.80
2023-05-24T13:26:47.010Z,2.88
2023-05-24T13:33:49.165Z,3.08
2023-05-24T13:40:53.523Z,3.08
2023-05-24T13:47:58.348Z,3.03
2023-05-24T13:55:00.044Z,3.17
2023-05-24T14:02:01.821Z,3.03
2023-05-24T14:09:04.553Z,3.17
2023-05-24T14:16:06.941Z,3.25
2023-05-24T14:23:08.631Z,3.17
2023-05-24T14:30:10.585Z,3.03
2023-05-24T14:37:12.230Z,3.53
2023-05-24T14:44:13.931Z,3.10
2023-05-24T14:51:15.604Z,3.17
2023-05-24T14:58:17.216Z,3.20
2023-05-24T15:05:19.381Z,3.25
2023-05-24T15:12:22.221Z,2.97
2023-05-24T15:19:23.889Z,3.38
2023-05-24T15:26:25.576Z,3.80
2023-05-24T15:33:27.309Z,3.63
2023-05-24T15:40:28.918Z,3.67
2023-05-24T15:47:36.140Z,3.28
2023-05-24T15:54:37.821Z,3.72
2023-05-24T16:01:39.454Z,3.42
2023-05-24T16:08:41.120Z,3.00
2023-05-24T16:15:43.226Z,3.72
2023-05-24T16:22:49.393Z,3.30
2023-05-24T16:29:51.594Z,4.22
2023-05-24T16:36:53.258Z,3.17
2023-05-24T16:43:54.908Z,3.30
2023-05-24T16:50:56.720Z,3.10
2023-05-24T16:57:58.397Z,3.35
2023-05-24T17:05:00.057Z,3.55
2023-05-24T17:12:01.839Z,3.67
2023-05-24T17:19:03.544Z,3.30
2023-05-24T17:26:07.781Z,3.60
2023-05-24T17:33:09.451Z,3.53
2023-05-24T17:40:11.395Z,3.05
2023-05-24T17:47:13.063Z,3.55
2023-05-24T17:54:14.673Z,3.65
2023-05-24T18:01:16.396Z,3.17
2023-05-24T18:08:18.196Z,3.35
2023-05-24T18:15:21.066Z,3.42
2023-05-24T18:22:22.671Z,3.40
2023-05-24T18:29:24.335Z,3.58
2023-05-24T18:36:25.976Z,6.05
2023-05-24T18:43:27.557Z,5.43
2023-05-24T18:50:29.156Z,4.95
2023-05-24T18:57:32.936Z,4.35
2023-05-24T19:04:34.585Z,4.75
2023-05-24T19:11:36.396Z,6.22
2023-05-24T19:18:38.040Z,3.60
2023-05-24T19:25:42.177Z,4.78
2023-05-24T19:32:43.946Z,6.22
2023-05-24T19:39:45.568Z,5.55
2023-05-24T19:46:47.154Z,7.65
2023-05-24T19:53:48.775Z,5.18
2023-05-24T20:00:50.401Z,4.20
2023-05-24T20:07:52.684Z,6.10
2023-05-24T20:14:54.481Z,5.43
2023-05-24T20:21:56.164Z,12.20
2023-05-24T20:28:57.744Z,7.95
2023-05-24T20:35:59.422Z,6.50
2023-05-24T20:43:01.127Z,4.53
2023-05-24T20:50:03.945Z,3.38
2023-05-24T20:57:06.171Z,95.68
2023-05-24T21:04:07.778Z,69.43
2023-05-24T21:11:09.375Z,67.43
2023-05-24T21:18:10.990Z,77.63
2023-05-24T21:25:12.738Z,70.22
2023-05-24T21:32:14.668Z,43.10
2023-05-24T21:39:16.406Z,23.65
2023-05-24T21:46:18.016Z,33.67
2023-05-24T21:53:19.649Z,52.63
2023-05-24T22:00:21.546Z,60.40
2023-05-24T22:07:23.151Z,73.10
2023-05-24T22:14:26.137Z,76.75
2023-05-24T22:21:28.111Z,106.78
2023-05-24T22:28:33.966Z,101.63
2023-05-24T22:35:35.586Z,75.78
2023-05-24T22:42:37.252Z,60.65
2023-05-24T22:49:39.230Z,89.80
2023-05-24T22:56:41.533Z,88.85
2023-05-24T23:03:43.130Z,97.78
2023-05-24T23:10:47.725Z,99.18
2023-05-24T23:17:52.373Z,89.25
2023-05-24T23:24:53.995Z,88.22
2023-05-24T23:31:55.732Z,105.97
2023-05-24T23:38:57.377Z,138.18
2023-05-24T23:45:58.972Z,136.73
2023-05-24T23:53:00.556Z,127.97
